Burt, Illinois
Current Conditions -  °F | °C
As of 1:15 AM on Sunday 23 Nov 2014 (Local Time) from KAAA Reporting Station
Overcast Overcast  
Wind Chill: 48°   Ceiling: 6000
Heat Index: 50°   Visibility: 10mi
Dew Point: 46°   Wind: 6mph
Humidity: 86%   Direction: 170°S
Pressure: 29.83"   Gusts: NA
Location:  40.3088°N, 89.3237°W
Report Text: KAAA 230715Z AUTO 17005KT 10SM OVC060 10/08 A2983 RMK AO2 T00990077
Loading
Personal Weather Stations






























Interactive Weather Map New forecast layout! Learn more

10-Day Weather Forecast

Advertisements
Track Severe Weather on mobile